sensor_id;sensor_type;location;lat;lon;timestamp;temperature;humidity
21787;DHT22;11055;50.870;4.316;2023-03-03T00:00:14;5.30;99.90
21787;DHT22;11055;50.870;4.316;2023-03-03T00:02:39;5.30;99.90
21787;DHT22;11055;50.870;4.316;2023-03-03T00:05:06;5.20;99.90
21787;DHT22;11055;50.870;4.316;2023-03-03T00:07:32;5.20;99.90
21787;DHT22;11055;50.870;4.316;2023-03-03T00:09:57;5.20;99.90
21787;DHT22;11055;50.870;4.316;2023-03-03T00:12:26;5.10;99.90
21787;DHT22;11055;50.870;4.316;2023-03-03T00:14:52;5.10;99.90
21787;DHT22;11055;50.870;4.316;2023-03-03T00:17:26;4.90;99.90
21787;DHT22;11055;50.870;4.316;2023-03-03T00:19:52;5.00;99.90
21787;DHT22;11055;50.870;4.316;2023-03-03T00:22:26;5.00;99.90
21787;DHT22;11055;50.870;4.316;2023-03-03T00:24:53;4.90;99.90
21787;DHT22;11055;50.870;4.316;2023-03-03T00:29:52;4.90;99.90
21787;DHT22;11055;50.870;4.316;2023-03-03T00:32:24;4.80;99.90
21787;DHT22;11055;50.870;4.316;2023-03-03T00:34:52;4.70;99.90
21787;DHT22;11055;50.870;4.316;2023-03-03T00:37:25;4.70;99.90
21787;DHT22;11055;50.870;4.316;2023-03-03T00:39:53;4.60;99.90
21787;DHT22;11055;50.870;4.316;2023-03-03T00:42:18;4.70;99.90
21787;DHT22;11055;50.870;4.316;2023-03-03T00:44:55;4.60;99.90
21787;DHT22;11055;50.870;4.316;2023-03-03T00:47:27;4.80;99.90
21787;DHT22;11055;50.870;4.316;2023-03-03T00:52:36;4.80;99.90
21787;DHT22;11055;50.870;4.316;2023-03-03T00:55:03;4.80;99.90
21787;DHT22;11055;50.870;4.316;2023-03-03T00:57:29;4.70;99.90
21787;DHT22;11055;50.870;4.316;2023-03-03T00:59:55;4.80;99.90
21787;DHT22;11055;50.870;4.316;2023-03-03T01:02:21;4.80;99.90
21787;DHT22;11055;50.870;4.316;2023-03-03T01:04:52;4.60;99.90
21787;DHT22;11055;50.870;4.316;2023-03-03T01:07:21;4.80;99.90
21787;DHT22;11055;50.870;4.316;2023-03-03T01:09:47;4.70;99.90
21787;DHT22;11055;50.870;4.316;2023-03-03T01:12:13;4.80;99.90
21787;DHT22;11055;50.870;4.316;2023-03-03T01:14:39;4.70;99.90
21787;DHT22;11055;50.870;4.316;2023-03-03T01:17:05;4.80;99.90
21787;DHT22;11055;50.870;4.316;2023-03-03T01:19:31;4.80;99.90
21787;DHT22;11055;50.870;4.316;2023-03-03T01:21:56;4.70;99.90
21787;DHT22;11055;50.870;4.316;2023-03-03T01:24:22;4.60;99.90
21787;DHT22;11055;50.870;4.316;2023-03-03T01:26:48;4.60;99.90
21787;DHT22;11055;50.870;4.316;2023-03-03T01:29:13;4.60;99.90
21787;DHT22;11055;50.870;4.316;2023-03-03T01:31:39;4.50;99.90
21787;DHT22;11055;50.870;4.316;2023-03-03T01:34:05;4.30;99.90
21787;DHT22;11055;50.870;4.316;2023-03-03T01:36:32;4.20;99.90
21787;DHT22;11055;50.870;4.316;2023-03-03T01:38:58;4.10;99.90
21787;DHT22;11055;50.870;4.316;2023-03-03T01:41:28;4.10;99.90
21787;DHT22;11055;50.870;4.316;2023-03-03T01:43:55;4.20;99.90
21787;DHT22;11055;50.870;4.316;2023-03-03T01:48:52;4.30;99.90
21787;DHT22;11055;50.870;4.316;2023-03-03T01:51:25;4.30;99.90
21787;DHT22;11055;50.870;4.316;2023-03-03T01:53:58;4.20;99.90
21787;DHT22;11055;50.870;4.316;2023-03-03T01:56:25;4.10;99.90
21787;DHT22;11055;50.870;4.316;2023-03-03T01:59:13;4.10;99.90
21787;DHT22;11055;50.870;4.316;2023-03-03T02:01:41;4.10;99.90
21787;DHT22;11055;50.870;4.316;2023-03-03T02:04:07;3.90;99.90
21787;DHT22;11055;50.870;4.316;2023-03-03T02:06:37;3.90;99.90
21787;DHT22;11055;50.870;4.316;2023-03-03T02:11:42;3.80;99.90
21787;DHT22;11055;50.870;4.316;2023-03-03T02:14:10;3.80;99.90
21787;DHT22;11055;50.870;4.316;2023-03-03T02:16:36;3.90;99.90
21787;DHT22;11055;50.870;4.316;2023-03-03T02:19:04;3.90;99.90
21787;DHT22;11055;50.870;4.316;2023-03-03T02:21:31;3.90;99.90
21787;DHT22;11055;50.870;4.316;2023-03-03T02:27:00;3.90;99.90
21787;DHT22;11055;50.870;4.316;2023-03-03T02:29:26;3.90;99.90
21787;DHT22;11055;50.870;4.316;2023-03-03T02:31:52;3.90;99.90
21787;DHT22;11055;50.870;4.316;2023-03-03T02:34:17;3.90;99.90
21787;DHT22;11055;50.870;4.316;2023-03-03T02:36:43;4.00;99.90
21787;DHT22;11055;50.870;4.316;2023-03-03T02:39:23;4.10;99.90
21787;DHT22;11055;50.870;4.316;2023-03-03T02:42:02;4.20;99.90
21787;DHT22;11055;50.870;4.316;2023-03-03T02:44:31;4.20;99.90
21787;DHT22;11055;50.870;4.316;2023-03-03T02:46:58;4.30;99.90
21787;DHT22;11055;50.870;4.316;2023-03-03T02:49:29;4.30;99.90
21787;DHT22;11055;50.870;4.316;2023-03-03T02:51:58;4.30;99.90
21787;DHT22;11055;50.870;4.316;2023-03-03T02:54:26;4.30;99.90
21787;DHT22;11055;50.870;4.316;2023-03-03T02:56:52;4.20;99.90
21787;DHT22;11055;50.870;4.316;2023-03-03T02:59:18;4.20;99.90
21787;DHT22;11055;50.870;4.316;2023-03-03T03:01:45;4.20;99.90
21787;DHT22;11055;50.870;4.316;2023-03-03T03:04:13;4.30;99.90
21787;DHT22;11055;50.870;4.316;2023-03-03T03:06:40;4.20;99.90
21787;DHT22;11055;50.870;4.316;2023-03-03T03:09:07;4.10;99.90
21787;DHT22;11055;50.870;4.316;2023-03-03T03:11:33;4.00;99.90
21787;DHT22;11055;50.870;4.316;2023-03-03T03:14:00;4.10;99.90
21787;DHT22;11055;50.870;4.316;2023-03-03T03:16:26;4.20;99.90
21787;DHT22;11055;50.870;4.316;2023-03-03T03:18:52;4.20;99.90
21787;DHT22;11055;50.870;4.316;2023-03-03T03:21:17;4.30;99.90
21787;DHT22;11055;50.870;4.316;2023-03-03T03:23:44;4.20;99.90
21787;DHT22;11055;50.870;4.316;2023-03-03T03:26:10;4.10;99.90
21787;DHT22;11055;50.870;4.316;2023-03-03T03:28:36;4.20;99.90
21787;DHT22;11055;50.870;4.316;2023-03-03T03:31:04;4.00;99.90
21787;DHT22;11055;50.870;4.316;2023-03-03T03:33:30;4.00;99.90
21787;DHT22;11055;50.870;4.316;2023-03-03T03:35:56;4.00;99.90
21787;DHT22;11055;50.870;4.316;2023-03-03T03:38:24;4.00;99.90
21787;DHT22;11055;50.870;4.316;2023-03-03T03:40:51;4.10;99.90
21787;DHT22;11055;50.870;4.316;2023-03-03T03:43:17;4.10;99.90
21787;DHT22;11055;50.870;4.316;2023-03-03T03:45:43;4.00;99.90
21787;DHT22;11055;50.870;4.316;2023-03-03T03:48:09;4.10;99.90
21787;DHT22;11055;50.870;4.316;2023-03-03T03:50:35;4.20;99.90
21787;DHT22;11055;50.870;4.316;2023-03-03T03:53:02;4.20;99.90
21787;DHT22;11055;50.870;4.316;2023-03-03T03:55:28;3.90;99.90
21787;DHT22;11055;50.870;4.316;2023-03-03T03:57:55;3.80;99.90
21787;DHT22;11055;50.870;4.316;2023-03-03T04:00:21;3.70;99.90
21787;DHT22;11055;50.870;4.316;2023-03-03T04:02:47;3.50;99.90
21787;DHT22;11055;50.870;4.316;2023-03-03T04:05:13;3.30;99.90
21787;DHT22;11055;50.870;4.316;2023-03-03T04:07:39;3.30;99.90
21787;DHT22;11055;50.870;4.316;2023-03-03T04:10:05;3.40;99.90
21787;DHT22;11055;50.870;4.316;2023-03-03T04:12:31;3.60;99.90
21787;DHT22;11055;50.870;4.316;2023-03-03T04:15:13;3.70;99.90
21787;DHT22;11055;50.870;4.316;2023-03-03T04:17:39;3.70;99.90
21787;DHT22;11055;50.870;4.316;2023-03-03T04:20:06;3.50;99.90
21787;DHT22;11055;50.870;4.316;2023-03-03T04:22:32;3.60;99.90
21787;DHT22;11055;50.870;4.316;2023-03-03T04:25:03;3.60;99.90
21787;DHT22;11055;50.870;4.316;2023-03-03T04:27:31;3.60;99.90
21787;DHT22;11055;50.870;4.316;2023-03-03T04:29:57;3.60;99.90
21787;DHT22;11055;50.870;4.316;2023-03-03T04:32:23;3.70;99.90
21787;DHT22;11055;50.870;4.316;2023-03-03T04:34:48;3.90;99.90
21787;DHT22;11055;50.870;4.316;2023-03-03T04:37:14;4.00;99.90
21787;DHT22;11055;50.870;4.316;2023-03-03T04:39:40;3.90;99.90
21787;DHT22;11055;50.870;4.316;2023-03-03T04:42:05;3.80;99.90
21787;DHT22;11055;50.870;4.316;2023-03-03T04:44:31;3.60;99.90
21787;DHT22;11055;50.870;4.316;2023-03-03T04:46:57;3.50;99.90
21787;DHT22;11055;50.870;4.316;2023-03-03T04:49:22;3.50;99.90
21787;DHT22;11055;50.870;4.316;2023-03-03T04:51:48;3.50;99.90
21787;DHT22;11055;50.870;4.316;2023-03-03T04:54:13;3.40;99.90
21787;DHT22;11055;50.870;4.316;2023-03-03T04:56:39;3.20;99.90
21787;DHT22;11055;50.870;4.316;2023-03-03T04:59:05;3.10;99.90
21787;DHT22;11055;50.870;4.316;2023-03-03T05:01:30;3.00;99.90
21787;DHT22;11055;50.870;4.316;2023-03-03T05:03:56;3.10;99.90
21787;DHT22;11055;50.870;4.316;2023-03-03T05:06:22;3.40;99.90
21787;DHT22;11055;50.870;4.316;2023-03-03T05:08:48;3.50;99.90
21787;DHT22;11055;50.870;4.316;2023-03-03T05:11:14;3.50;99.90
21787;DHT22;11055;50.870;4.316;2023-03-03T05:13:40;3.40;99.90
21787;DHT22;11055;50.870;4.316;2023-03-03T05:16:06;3.30;99.90
21787;DHT22;11055;50.870;4.316;2023-03-03T05:18:31;3.20;99.90
21787;DHT22;11055;50.870;4.316;2023-03-03T05:20:57;3.10;99.90
21787;DHT22;11055;50.870;4.316;2023-03-03T05:23:23;3.10;99.90
21787;DHT22;11055;50.870;4.316;2023-03-03T05:25:49;3.10;99.90
21787;DHT22;11055;50.870;4.316;2023-03-03T05:28:16;3.10;99.90
21787;DHT22;11055;50.870;4.316;2023-03-03T05:30:41;3.20;99.90
21787;DHT22;11055;50.870;4.316;2023-03-03T05:33:09;3.10;99.90
21787;DHT22;11055;50.870;4.316;2023-03-03T05:35:34;3.20;99.90
21787;DHT22;11055;50.870;4.316;2023-03-03T05:38:00;3.10;99.90
21787;DHT22;11055;50.870;4.316;2023-03-03T05:40:26;3.10;99.90
21787;DHT22;11055;50.870;4.316;2023-03-03T05:42:52;3.10;99.90
21787;DHT22;11055;50.870;4.316;2023-03-03T05:45:18;3.10;99.90
21787;DHT22;11055;50.870;4.316;2023-03-03T05:47:46;3.00;99.90
21787;DHT22;11055;50.870;4.316;2023-03-03T05:50:13;3.00;99.90
21787;DHT22;11055;50.870;4.316;2023-03-03T05:52:38;2.90;99.90
21787;DHT22;11055;50.870;4.316;2023-03-03T05:55:04;3.00;99.90
21787;DHT22;11055;50.870;4.316;2023-03-03T05:57:30;2.90;99.90
21787;DHT22;11055;50.870;4.316;2023-03-03T05:59:56;2.80;99.90
21787;DHT22;11055;50.870;4.316;2023-03-03T06:02:21;3.00;99.90
21787;DHT22;11055;50.870;4.316;2023-03-03T06:04:47;3.20;99.90
21787;DHT22;11055;50.870;4.316;2023-03-03T06:07:13;3.30;99.90
21787;DHT22;11055;50.870;4.316;2023-03-03T06:09:39;3.00;99.90
21787;DHT22;11055;50.870;4.316;2023-03-03T06:12:05;2.90;99.90
21787;DHT22;11055;50.870;4.316;2023-03-03T06:14:30;2.80;99.90
21787;DHT22;11055;50.870;4.316;2023-03-03T06:16:56;2.80;99.90
21787;DHT22;11055;50.870;4.316;2023-03-03T06:19:22;2.90;99.90
21787;DHT22;11055;50.870;4.316;2023-03-03T06:21:48;3.00;99.90
21787;DHT22;11055;50.870;4.316;2023-03-03T06:24:14;3.00;99.90
21787;DHT22;11055;50.870;4.316;2023-03-03T06:26:40;2.80;99.90
21787;DHT22;11055;50.870;4.316;2023-03-03T06:29:05;2.90;99.90
21787;DHT22;11055;50.870;4.316;2023-03-03T06:31:31;2.90;99.90
21787;DHT22;11055;50.870;4.316;2023-03-03T06:33:57;3.00;99.90
21787;DHT22;11055;50.870;4.316;2023-03-03T06:36:22;3.10;99.90
21787;DHT22;11055;50.870;4.316;2023-03-03T06:38:50;3.10;99.90
21787;DHT22;11055;50.870;4.316;2023-03-03T06:41:15;3.10;99.90
21787;DHT22;11055;50.870;4.316;2023-03-03T06:43:41;3.00;99.90
21787;DHT22;11055;50.870;4.316;2023-03-03T06:46:07;3.10;99.90
21787;DHT22;11055;50.870;4.316;2023-03-03T06:48:33;2.90;99.90
21787;DHT22;11055;50.870;4.316;2023-03-03T06:51:00;3.00;99.90
21787;DHT22;11055;50.870;4.316;2023-03-03T06:53:26;3.00;99.90
21787;DHT22;11055;50.870;4.316;2023-03-03T06:55:55;2.80;99.90
21787;DHT22;11055;50.870;4.316;2023-03-03T06:58:21;3.00;99.90
21787;DHT22;11055;50.870;4.316;2023-03-03T07:00:58;3.00;99.90
21787;DHT22;11055;50.870;4.316;2023-03-03T07:03:26;3.00;99.90
21787;DHT22;11055;50.870;4.316;2023-03-03T07:05:54;2.90;99.90
21787;DHT22;11055;50.870;4.316;2023-03-03T07:08:22;2.90;99.90
21787;DHT22;11055;50.870;4.316;2023-03-03T07:10:50;2.70;99.90
21787;DHT22;11055;50.870;4.316;2023-03-03T07:13:20;2.70;99.90
21787;DHT22;11055;50.870;4.316;2023-03-03T07:15:51;2.70;99.90
21787;DHT22;11055;50.870;4.316;2023-03-03T07:18:47;2.70;99.90
21787;DHT22;11055;50.870;4.316;2023-03-03T07:21:16;2.70;99.90
21787;DHT22;11055;50.870;4.316;2023-03-03T07:23:44;2.60;99.90
21787;DHT22;11055;50.870;4.316;2023-03-03T07:26:25;2.60;99.90
21787;DHT22;11055;50.870;4.316;2023-03-03T07:28:55;2.80;99.90
21787;DHT22;11055;50.870;4.316;2023-03-03T07:31:56;2.80;99.90
21787;DHT22;11055;50.870;4.316;2023-03-03T07:34:43;2.80;99.90
21787;DHT22;11055;50.870;4.316;2023-03-03T07:39:52;2.60;99.90
21787;DHT22;11055;50.870;4.316;2023-03-03T07:42:24;2.60;99.90
21787;DHT22;11055;50.870;4.316;2023-03-03T07:44:54;2.70;99.90
21787;DHT22;11055;50.870;4.316;2023-03-03T07:47:27;2.80;99.90
21787;DHT22;11055;50.870;4.316;2023-03-03T07:50:12;2.90;99.90
21787;DHT22;11055;50.870;4.316;2023-03-03T07:52:41;2.90;99.90
21787;DHT22;11055;50.870;4.316;2023-03-03T07:55:33;2.90;99.90
21787;DHT22;11055;50.870;4.316;2023-03-03T08:03:19;3.20;99.90
21787;DHT22;11055;50.870;4.316;2023-03-03T08:05:49;3.30;99.90
21787;DHT22;11055;50.870;4.316;2023-03-03T08:08:28;3.40;99.90
21787;DHT22;11055;50.870;4.316;2023-03-03T08:10:56;3.40;99.90
21787;DHT22;11055;50.870;4.316;2023-03-03T08:13:27;3.10;99.90
21787;DHT22;11055;50.870;4.316;2023-03-03T08:21:08;3.30;99.90
21787;DHT22;11055;50.870;4.316;2023-03-03T08:23:35;3.40;99.90
21787;DHT22;11055;50.870;4.316;2023-03-03T08:26:01;3.40;99.90
21787;DHT22;11055;50.870;4.316;2023-03-03T08:28:26;3.40;99.90
21787;DHT22;11055;50.870;4.316;2023-03-03T08:30:52;3.40;99.90
21787;DHT22;11055;50.870;4.316;2023-03-03T08:33:18;3.20;99.90
21787;DHT22;11055;50.870;4.316;2023-03-03T08:35:44;3.20;99.90
21787;DHT22;11055;50.870;4.316;2023-03-03T08:38:12;3.30;99.90
21787;DHT22;11055;50.870;4.316;2023-03-03T08:40:38;3.40;99.90
21787;DHT22;11055;50.870;4.316;2023-03-03T08:43:04;3.50;99.90
21787;DHT22;11055;50.870;4.316;2023-03-03T08:45:30;3.50;99.90
21787;DHT22;11055;50.870;4.316;2023-03-03T08:47:56;3.60;99.90
21787;DHT22;11055;50.870;4.316;2023-03-03T08:50:21;3.70;99.90
21787;DHT22;11055;50.870;4.316;2023-03-03T08:52:48;3.70;99.90
21787;DHT22;11055;50.870;4.316;2023-03-03T08:55:13;3.70;99.90
21787;DHT22;11055;50.870;4.316;2023-03-03T08:57:39;3.70;99.90
21787;DHT22;11055;50.870;4.316;2023-03-03T09:00:08;3.80;99.90
21787;DHT22;11055;50.870;4.316;2023-03-03T09:02:34;3.90;99.90
21787;DHT22;11055;50.870;4.316;2023-03-03T09:05:00;4.00;99.90
21787;DHT22;11055;50.870;4.316;2023-03-03T09:07:26;3.90;99.90
21787;DHT22;11055;50.870;4.316;2023-03-03T09:09:51;3.90;99.90
21787;DHT22;11055;50.870;4.316;2023-03-03T09:12:32;3.90;99.90
21787;DHT22;11055;50.870;4.316;2023-03-03T09:15:16;3.80;99.90
21787;DHT22;11055;50.870;4.316;2023-03-03T09:17:42;3.70;99.90
21787;DHT22;11055;50.870;4.316;2023-03-03T09:20:32;3.50;99.90
21787;DHT22;11055;50.870;4.316;2023-03-03T09:23:07;3.60;99.90
21787;DHT22;11055;50.870;4.316;2023-03-03T09:25:41;3.60;99.90
21787;DHT22;11055;50.870;4.316;2023-03-03T09:28:29;3.40;99.90
21787;DHT22;11055;50.870;4.316;2023-03-03T09:30:59;3.50;99.90
21787;DHT22;11055;50.870;4.316;2023-03-03T09:38:39;3.50;99.90
21787;DHT22;11055;50.870;4.316;2023-03-03T09:41:13;3.50;99.90
21787;DHT22;11055;50.870;4.316;2023-03-03T09:52:05;3.60;99.90
21787;DHT22;11055;50.870;4.316;2023-03-03T09:54:56;3.70;99.90
21787;DHT22;11055;50.870;4.316;2023-03-03T10:03:41;3.80;99.90
21787;DHT22;11055;50.870;4.316;2023-03-03T10:20:52;4.50;99.90
21787;DHT22;11055;50.870;4.316;2023-03-03T10:26:29;4.50;99.90
21787;DHT22;11055;50.870;4.316;2023-03-03T10:31:44;5.00;99.90
21787;DHT22;11055;50.870;4.316;2023-03-03T10:37:00;5.30;99.90
21787;DHT22;11055;50.870;4.316;2023-03-03T10:47:48;5.40;99.90
21787;DHT22;11055;50.870;4.316;2023-03-03T11:01:48;5.30;99.90
21787;DHT22;11055;50.870;4.316;2023-03-03T11:04:32;5.20;99.90
21787;DHT22;11055;50.870;4.316;2023-03-03T11:07:42;5.40;99.90
21787;DHT22;11055;50.870;4.316;2023-03-03T11:10:29;5.40;99.90
21787;DHT22;11055;50.870;4.316;2023-03-03T11:13:06;5.30;99.90
21787;DHT22;11055;50.870;4.316;2023-03-03T11:21:22;5.50;99.90
21787;DHT22;11055;50.870;4.316;2023-03-03T11:29:32;6.30;99.90
21787;DHT22;11055;50.870;4.316;2023-03-03T11:32:25;6.30;99.90
21787;DHT22;11055;50.870;4.316;2023-03-03T11:35:12;6.40;99.90
21787;DHT22;11055;50.870;4.316;2023-03-03T11:37:53;6.60;99.90
21787;DHT22;11055;50.870;4.316;2023-03-03T11:40:29;6.80;99.90
21787;DHT22;11055;50.870;4.316;2023-03-03T11:43:13;6.90;99.90
21787;DHT22;11055;50.870;4.316;2023-03-03T11:45:45;6.90;99.90
21787;DHT22;11055;50.870;4.316;2023-03-03T11:51:19;6.80;99.90
21787;DHT22;11055;50.870;4.316;2023-03-03T11:56:27;6.90;99.90
21787;DHT22;11055;50.870;4.316;2023-03-03T12:04:46;6.70;99.90
21787;DHT22;11055;50.870;4.316;2023-03-03T12:07:30;7.00;99.90
21787;DHT22;11055;50.870;4.316;2023-03-03T12:10:15;7.30;99.90
21787;DHT22;11055;50.870;4.316;2023-03-03T12:13:02;7.90;99.90
21787;DHT22;11055;50.870;4.316;2023-03-03T12:16:01;9.00;99.90
21787;DHT22;11055;50.870;4.316;2023-03-03T12:29:36;8.10;99.90
21787;DHT22;11055;50.870;4.316;2023-03-03T12:35:12;8.80;99.90
21787;DHT22;11055;50.870;4.316;2023-03-03T12:38:08;10.60;99.90
21787;DHT22;11055;50.870;4.316;2023-03-03T12:40:48;14.50;98.70
21787;DHT22;11055;50.870;4.316;2023-03-03T12:46:03;11.90;99.50
21787;DHT22;11055;50.870;4.316;2023-03-03T12:48:41;10.20;99.90
21787;DHT22;11055;50.870;4.316;2023-03-03T12:53:51;9.80;99.90
21787;DHT22;11055;50.870;4.316;2023-03-03T12:56:37;13.30;99.90
21787;DHT22;11055;50.870;4.316;2023-03-03T12:59:30;15.30;93.90
21787;DHT22;11055;50.870;4.316;2023-03-03T13:04:46;18.80;80.80
21787;DHT22;11055;50.870;4.316;2023-03-03T13:12:43;19.30;61.50
21787;DHT22;11055;50.870;4.316;2023-03-03T13:15:18;22.00;57.60
21787;DHT22;11055;50.870;4.316;2023-03-03T13:18:24;25.80;47.30
21787;DHT22;11055;50.870;4.316;2023-03-03T13:21:14;28.50;41.10
21787;DHT22;11055;50.870;4.316;2023-03-03T13:24:01;30.40;34.70
21787;DHT22;11055;50.870;4.316;2023-03-03T13:31:47;30.60;31.30
21787;DHT22;11055;50.870;4.316;2023-03-03T13:36:55;32.40;29.20
21787;DHT22;11055;50.870;4.316;2023-03-03T13:44:54;33.70;27.90
21787;DHT22;11055;50.870;4.316;2023-03-03T13:47:30;36.10;25.90
21787;DHT22;11055;50.870;4.316;2023-03-03T13:50:11;36.90;25.50
21787;DHT22;11055;50.870;4.316;2023-03-03T13:55:36;36.50;23.30
21787;DHT22;11055;50.870;4.316;2023-03-03T13:58:12;33.70;24.60
21787;DHT22;11055;50.870;4.316;2023-03-03T14:01:00;33.50;25.60
21787;DHT22;11055;50.870;4.316;2023-03-03T14:06:24;33.90;24.90
21787;DHT22;11055;50.870;4.316;2023-03-03T14:08:58;33.20;26.10
21787;DHT22;11055;50.870;4.316;2023-03-03T14:22:54;30.70;26.60
21787;DHT22;11055;50.870;4.316;2023-03-03T14:25:21;30.50;27.10
21787;DHT22;11055;50.870;4.316;2023-03-03T14:30:26;30.70;27.50
21787;DHT22;11055;50.870;4.316;2023-03-03T14:32:59;31.20;26.80
21787;DHT22;11055;50.870;4.316;2023-03-03T14:35:29;29.10;27.80
21787;DHT22;11055;50.870;4.316;2023-03-03T14:40:34;23.20;34.50
21787;DHT22;11055;50.870;4.316;2023-03-03T14:43:04;19.90;39.40
21787;DHT22;11055;50.870;4.316;2023-03-03T14:45:39;18.40;43.00
21787;DHT22;11055;50.870;4.316;2023-03-03T14:48:20;16.10;47.10
21787;DHT22;11055;50.870;4.316;2023-03-03T14:53:43;13.50;54.70
21787;DHT22;11055;50.870;4.316;2023-03-03T14:56:35;12.80;57.10
21787;DHT22;11055;50.870;4.316;2023-03-03T14:59:17;11.80;60.70
21787;DHT22;11055;50.870;4.316;2023-03-03T15:01:44;11.00;66.50
21787;DHT22;11055;50.870;4.316;2023-03-03T15:06:43;10.40;77.70
21787;DHT22;11055;50.870;4.316;2023-03-03T15:11:59;10.30;83.90
21787;DHT22;11055;50.870;4.316;2023-03-03T15:14:35;10.20;88.60
21787;DHT22;11055;50.870;4.316;2023-03-03T15:25:14;9.40;99.10
21787;DHT22;11055;50.870;4.316;2023-03-03T15:27:45;9.50;99.90
21787;DHT22;11055;50.870;4.316;2023-03-03T15:30:20;9.60;99.90
21787;DHT22;11055;50.870;4.316;2023-03-03T15:35:56;9.50;99.90
21787;DHT22;11055;50.870;4.316;2023-03-03T15:46:30;9.50;99.90
21787;DHT22;11055;50.870;4.316;2023-03-03T16:03:26;9.50;99.90
21787;DHT22;11055;50.870;4.316;2023-03-03T16:06:04;9.30;99.90
21787;DHT22;11055;50.870;4.316;2023-03-03T16:11:50;9.40;99.90
21787;DHT22;11055;50.870;4.316;2023-03-03T16:25:31;9.20;99.90
21787;DHT22;11055;50.870;4.316;2023-03-03T16:33:18;8.80;99.90
21787;DHT22;11055;50.870;4.316;2023-03-03T16:35:59;8.90;99.90
21787;DHT22;11055;50.870;4.316;2023-03-03T16:38:59;9.00;99.90
21787;DHT22;11055;50.870;4.316;2023-03-03T16:42:14;9.00;99.90
21787;DHT22;11055;50.870;4.316;2023-03-03T16:44:46;9.20;99.90
21787;DHT22;11055;50.870;4.316;2023-03-03T16:53:36;9.00;99.90
21787;DHT22;11055;50.870;4.316;2023-03-03T17:04:14;8.70;99.90
21787;DHT22;11055;50.870;4.316;2023-03-03T17:06:52;8.50;99.90
21787;DHT22;11055;50.870;4.316;2023-03-03T17:15:36;8.30;99.90
21787;DHT22;11055;50.870;4.316;2023-03-03T17:20:55;8.50;99.90
21787;DHT22;11055;50.870;4.316;2023-03-03T17:26:19;8.40;99.90
21787;DHT22;11055;50.870;4.316;2023-03-03T17:37:20;8.40;99.90
21787;DHT22;11055;50.870;4.316;2023-03-03T17:40:04;8.40;99.90
21787;DHT22;11055;50.870;4.316;2023-03-03T17:42:54;8.40;99.90
21787;DHT22;11055;50.870;4.316;2023-03-03T17:45:25;8.30;99.90
21787;DHT22;11055;50.870;4.316;2023-03-03T18:01:39;8.20;99.90
21787;DHT22;11055;50.870;4.316;2023-03-03T18:15:27;8.50;99.90
21787;DHT22;11055;50.870;4.316;2023-03-03T18:18:04;8.50;99.90
21787;DHT22;11055;50.870;4.316;2023-03-03T18:20:40;8.60;99.90
21787;DHT22;11055;50.870;4.316;2023-03-03T18:26:03;8.80;99.90
21787;DHT22;11055;50.870;4.316;2023-03-03T18:28:49;8.80;99.90
21787;DHT22;11055;50.870;4.316;2023-03-03T18:31:25;8.90;99.90
21787;DHT22;11055;50.870;4.316;2023-03-03T18:34:40;9.00;99.90
21787;DHT22;11055;50.870;4.316;2023-03-03T18:42:50;8.90;99.90
21787;DHT22;11055;50.870;4.316;2023-03-03T18:48:10;8.80;99.90
21787;DHT22;11055;50.870;4.316;2023-03-03T18:50:43;9.00;99.90
21787;DHT22;11055;50.870;4.316;2023-03-03T18:55:40;8.90;99.90
21787;DHT22;11055;50.870;4.316;2023-03-03T19:06:09;8.90;99.90
21787;DHT22;11055;50.870;4.316;2023-03-03T19:08:53;8.70;99.90
21787;DHT22;11055;50.870;4.316;2023-03-03T19:16:43;8.50;99.90
21787;DHT22;11055;50.870;4.316;2023-03-03T19:19:29;8.50;99.90
21787;DHT22;11055;50.870;4.316;2023-03-03T19:22:26;8.40;99.90
21787;DHT22;11055;50.870;4.316;2023-03-03T19:27:48;8.40;99.90
21787;DHT22;11055;50.870;4.316;2023-03-03T19:30:39;8.50;99.90
21787;DHT22;11055;50.870;4.316;2023-03-03T19:33:13;8.50;99.90
21787;DHT22;11055;50.870;4.316;2023-03-03T19:36:00;8.50;99.90
21787;DHT22;11055;50.870;4.316;2023-03-03T19:44:30;8.30;99.90
21787;DHT22;11055;50.870;4.316;2023-03-03T19:47:03;8.40;99.90
21787;DHT22;11055;50.870;4.316;2023-03-03T19:49:55;8.50;99.90
21787;DHT22;11055;50.870;4.316;2023-03-03T19:52:43;8.40;99.90
21787;DHT22;11055;50.870;4.316;2023-03-03T20:00:41;8.30;99.90
21787;DHT22;11055;50.870;4.316;2023-03-03T20:09:18;8.20;99.90
21787;DHT22;11055;50.870;4.316;2023-03-03T20:15:06;8.10;99.90
21787;DHT22;11055;50.870;4.316;2023-03-03T20:31:46;8.00;99.90
21787;DHT22;11055;50.870;4.316;2023-03-03T20:37:13;8.20;99.90
21787;DHT22;11055;50.870;4.316;2023-03-03T20:39:55;8.20;99.90
21787;DHT22;11055;50.870;4.316;2023-03-03T20:45:40;7.80;99.90
21787;DHT22;11055;50.870;4.316;2023-03-03T20:48:15;7.80;99.90
21787;DHT22;11055;50.870;4.316;2023-03-03T20:56:50;7.70;99.90
21787;DHT22;11055;50.870;4.316;2023-03-03T20:59:31;7.70;99.90
21787;DHT22;11055;50.870;4.316;2023-03-03T21:02:19;7.60;99.90
21787;DHT22;11055;50.870;4.316;2023-03-03T21:05:15;7.70;99.90
21787;DHT22;11055;50.870;4.316;2023-03-03T21:07:55;7.60;99.90
21787;DHT22;11055;50.870;4.316;2023-03-03T21:10:24;7.60;99.90
21787;DHT22;11055;50.870;4.316;2023-03-03T21:13:27;7.60;99.90
21787;DHT22;11055;50.870;4.316;2023-03-03T21:16:08;7.50;99.90
21787;DHT22;11055;50.870;4.316;2023-03-03T21:18:33;7.50;99.90
21787;DHT22;11055;50.870;4.316;2023-03-03T21:20:59;7.60;99.90
21787;DHT22;11055;50.870;4.316;2023-03-03T21:23:25;7.60;99.90
21787;DHT22;11055;50.870;4.316;2023-03-03T21:25:55;7.60;99.90
21787;DHT22;11055;50.870;4.316;2023-03-03T21:28:28;7.60;99.90
21787;DHT22;11055;50.870;4.316;2023-03-03T21:31:12;7.60;99.90
21787;DHT22;11055;50.870;4.316;2023-03-03T21:33:43;7.70;99.90
21787;DHT22;11055;50.870;4.316;2023-03-03T21:36:11;7.80;99.90
21787;DHT22;11055;50.870;4.316;2023-03-03T21:38:37;7.70;99.90
21787;DHT22;11055;50.870;4.316;2023-03-03T21:41:05;7.60;99.90
21787;DHT22;11055;50.870;4.316;2023-03-03T21:43:39;7.70;99.90
21787;DHT22;11055;50.870;4.316;2023-03-03T21:46:06;7.90;99.90
21787;DHT22;11055;50.870;4.316;2023-03-03T21:48:31;7.80;99.90
21787;DHT22;11055;50.870;4.316;2023-03-03T21:50:57;7.80;99.90
21787;DHT22;11055;50.870;4.316;2023-03-03T21:53:23;7.80;99.90
21787;DHT22;11055;50.870;4.316;2023-03-03T21:55:54;7.70;99.90
21787;DHT22;11055;50.870;4.316;2023-03-03T21:58:19;8.00;99.90
21787;DHT22;11055;50.870;4.316;2023-03-03T22:00:46;7.90;99.90
21787;DHT22;11055;50.870;4.316;2023-03-03T22:03:12;7.90;99.90
21787;DHT22;11055;50.870;4.316;2023-03-03T22:05:40;7.60;99.90
21787;DHT22;11055;50.870;4.316;2023-03-03T22:08:06;7.70;99.90
21787;DHT22;11055;50.870;4.316;2023-03-03T22:10:32;7.60;99.90
21787;DHT22;11055;50.870;4.316;2023-03-03T22:12:57;7.80;99.90
21787;DHT22;11055;50.870;4.316;2023-03-03T22:15:23;7.60;99.90
21787;DHT22;11055;50.870;4.316;2023-03-03T22:17:49;7.70;99.90
21787;DHT22;11055;50.870;4.316;2023-03-03T22:20:15;7.70;99.90
21787;DHT22;11055;50.870;4.316;2023-03-03T22:22:41;7.60;99.90
21787;DHT22;11055;50.870;4.316;2023-03-03T22:25:07;7.60;99.90